Rosebud, Montana
Current Conditions -  °F | °C
As of 7:53 AM on Monday 24 Nov 2014 (Local Time) from KMLS Reporting Station
Broken Clouds Broken Clouds  
Wind Chill: 21°   Ceiling: 6500
Heat Index: 32°   Visibility: 10mi
Dew Point: 27°   Wind: 16mph
Humidity: 82%   Direction: 320°NW
Pressure: 29.88"   Gusts: NA
Location:  46.27°N, 106.45°W
Report Text: KMLS 241453Z AUTO 32014KT 10SM BKN065 BKN110 00/M03 A2988 RMK AO2 SLP145 60000 T00001028 53023
Loading
Personal Weather Stations






























Interactive Weather Map New forecast layout! Learn more

10-Day Weather Forecast

Advertisements
Track Severe Weather on mobile